Accueil
METAR-TAF:

METAR-TAF

Aéroports :

Aéroport de Brive-Vallée de la Dordogne

Brive-la-Gaillarde, France

latitude: 45-02-28N, longitude: 001-28-59E, altitude: 311 m

Observation

Le bulletin a été fait il y a 28 minutes, à 18:00 UTC
Vent 6 kt de nord/nord-ouest
Température 5°C
Humidité 75%
Pression 1034 hPa
Visibilité 10 km ou plus
pas de nuages en-dessous de 1500 mètres et pas de cumulonimbus.

METAR: LFSL 021800Z AUTO 33006KT CAVOK 05/01 Q1034 NOSIG

Heure: 19:28 (18:28 UTC)

Prévision

Le bulletin a été fait il y a 1 heure et 28 minutes, à 17:00 UTC
Prévision valable du 02 à 18 UTC au 03 à 03 UTC
Vent 5 kt de nord
Visibilité 10 km ou plus
Quelques nuages à une hauteur de 3500 ft
Probabilité 30% :
Temporairement
du 03 à 01 UTC au 03 à 03 UTC
Visibilité: 1500 m
Brouillard mince

TAF: LFSL 021700Z 0218/0303 35005KT 9999 FEW035 PROB30 TEMPO 0301/0303 1500 MIFG

Observations et prévisions météorologiques de plus de 4000 aéroports (messages METAR et TAF).

Les stations disponibles sont représentées par des disques jaunes et rouges sur la carte.

Passer la souris dessus pour voir le nom de la station.

Cliquer dessus pour voir les observations et prévisions météorologiques.

Pour changer de carte: cliquez sur les boutons verts avec une croix noire pour zoomer, sur le bouton vert avec un tiret pour effectuer un zoom arrière, ou sur les flèches vertes pour les cartes adjacentes.


METAR-TAF: